Back to Top

Language: 

My Weather Underground Personal Weather Station Historical Data with Graphs...

Delerius Weather Station Historical Data
Daily Summary for January 12, 2018 Units:  Both    English   Metric
« Previous Day
Next Day »
Daily Weekly Monthly Yearly Custom
  High: Low: Average:
Temperature: 43.3 °F /  6.3 °C 41.7 °F /  5.4 °C 42.3 °F /  5.7 °C
Dew Point: 42.3 °F /  5.7 °C 40.5 °F /  4.7 °C 41.3 °F /  5.2 °C
Humidity: 97 % 94 % 96 %
Wind Speed: 10.0 mph /  16.1 km/h - 3.3 mph /  5.3 km/h
Wind Gust: 18.0 mph /  29 km/h - -
Wind:- - SE
Pressure: 30.33 in /  1027 hPa 30.17 in /  1021.6 hPa -
Precipitation: 0.00 in /  0 mm    
Historical Graphs
 
 
Tabular Data for January 12, 2018
Time Temperature Dew Point Pressure Wind Wind Speed Wind Gust Humidity Rainfall Rate (Hourly) solar Conditions
00:03 43.3 °F /  6.3 °C 42.3 °F /  5.7 °C 30.30 in /  1026 hPa Calm     96 % 0.00 in /  0 mm 0 W/m2
00:11 43.3 °F /  6.3 °C 42.3 °F /  5.7 °C 30.30 in /  1026 hPa Calm     96 % 0.00 in /  0 mm 0 W/m2
00:21 43.3 °F /  6.3 °C 42.3 °F /  5.7 °C 30.30 in /  1026 hPa Calm     96 % 0.00 in /  0 mm 0 W/m2
00:26 43.3 °F /  6.3 °C 42.3 °F /  5.7 °C 30.30 in /  1026 hPa Calm     96 % 0.00 in /  0 mm 0 W/m2
00:31 43.2 °F /  6.2 °C 42.1 °F /  5.6 °C 30.30 in /  1026 hPa Calm     96 % 0.00 in /  0 mm 0 W/m2
00:36 43.2 °F /  6.2 °C 42.1 °F /  5.6 °C 30.30 in /  1026 hPa Calm     96 % 0.00 in /  0 mm 0 W/m2
00:42 43.2 °F /  6.2 °C 42.1 °F /  5.6 °C 30.30 in /  1026 hPa Calm     96 % 0.00 in /  0 mm 0 W/m2
00:47 43.2 °F /  6.2 °C 42.1 °F /  5.6 °C 30.30 in /  1026 hPa Calm     96 % 0.00 in /  0 mm 0 W/m2
00:53 43.2 °F /  6.2 °C 42.1 °F /  5.6 °C 30.30 in /  1026 hPa Calm     96 % 0.00 in /  0 mm 0 W/m2
00:58 43.2 °F /  6.2 °C 42.1 °F /  5.6 °C 30.30 in /  1026 hPa Calm     96 % 0.00 in /  0 mm 0 W/m2
01:14 43.3 °F /  6.3 °C 42.3 °F /  5.7 °C 30.30 in /  1026 hPa Calm   1.0 mph /  1.6 km/h 96 % 0.00 in /  0 mm 0 W/m2
01:22 43.3 °F /  6.3 °C 42.3 °F /  5.7 °C 30.30 in /  1026 hPa Calm     96 % 0.00 in /  0 mm 0 W/m2
01:37 43.3 °F /  6.3 °C 42.3 °F /  5.7 °C 30.31 in /  1026.3 hPa Calm   1.0 mph /  1.6 km/h 96 % 0.00 in /  0 mm 0 W/m2
01:44 43.3 °F /  6.3 °C 42.3 °F /  5.7 °C 30.31 in /  1026.3 hPa Calm     96 % 0.00 in /  0 mm 0 W/m2
01:48 43.3 °F /  6.3 °C 42.3 °F /  5.7 °C 30.31 in /  1026.3 hPa Calm     96 % 0.00 in /  0 mm 0 W/m2
01:53 43.3 °F /  6.3 °C 42.3 °F /  5.7 °C 30.31 in /  1026.3 hPa Calm     96 % 0.00 in /  0 mm 0 W/m2
02:17 43.2 °F /  6.2 °C 42.1 °F /  5.6 °C 30.31 in /  1026.3 hPa Calm     96 % 0.00 in /  0 mm 0 W/m2
02:22 43.2 °F /  6.2 °C 42.1 °F /  5.6 °C 30.31 in /  1026.3 hPa Calm     96 % 0.00 in /  0 mm 0 W/m2
02:44 43.2 °F /  6.2 °C 42.1 °F /  5.6 °C 30.32 in /  1026.6 hPa Calm     96 % 0.00 in /  0 mm 0 W/m2
03:08 43.0 °F /  6.1 °C 41.9 °F /  5.5 °C 30.31 in /  1026.3 hPa Calm     96 % 0.00 in /  0 mm 0 W/m2
03:13 43.0 °F /  6.1 °C 41.9 °F /  5.5 °C 30.31 in /  1026.3 hPa Calm     96 % 0.00 in /  0 mm 0 W/m2
03:36 42.8 °F /  6 °C 41.7 °F /  5.4 °C 30.31 in /  1026.3 hPa Calm     96 % 0.00 in /  0 mm 0 W/m2
03:42 42.8 °F /  6 °C 41.7 °F /  5.4 °C 30.31 in /  1026.3 hPa Calm     96 % 0.00 in /  0 mm 0 W/m2
03:48 42.6 °F /  5.9 °C 41.6 °F /  5.3 °C 30.31 in /  1026.3 hPa Calm     96 % 0.00 in /  0 mm 0 W/m2
04:01 42.6 °F /  5.9 °C 41.6 °F /  5.3 °C 30.31 in /  1026.3 hPa Calm     96 % 0.00 in /  0 mm 0 W/m2
04:08 42.4 °F /  5.8 °C 41.4 °F /  5.2 °C 30.31 in /  1026.3 hPa Calm     96 % 0.00 in /  0 mm 0 W/m2
04:26 42.3 °F /  5.7 °C 41.2 °F /  5.1 °C 30.31 in /  1026.3 hPa Calm     96 % 0.00 in /  0 mm 0 W/m2
04:41 42.1 °F /  5.6 °C 41.0 °F /  5 °C 30.31 in /  1026.3 hPa Calm     96 % 0.00 in /  0 mm 0 W/m2
04:47 42.1 °F /  5.6 °C 41.0 °F /  5 °C 30.31 in /  1026.3 hPa Calm     96 % 0.00 in /  0 mm 0 W/m2
04:55 42.1 °F /  5.6 °C 41.0 °F /  5 °C 30.31 in /  1026.3 hPa Calm     96 % 0.00 in /  0 mm 0 W/m2
05:05 42.1 °F /  5.6 °C 41.0 °F /  5 °C 30.31 in /  1026.3 hPa Calm     96 % 0.00 in /  0 mm 0 W/m2
05:10 42.1 °F /  5.6 °C 41.0 °F /  5 °C 30.31 in /  1026.3 hPa Calm     96 % 0.00 in /  0 mm 0 W/m2
05:20 42.1 °F /  5.6 °C 41.0 °F /  5 °C 30.31 in /  1026.3 hPa ENE 1.0 mph /  1.6 km/h 2.0 mph /  3.2 km/h 96 % 0.00 in /  0 mm 0 W/m2
05:33 42.1 °F /  5.6 °C 41.3 °F /  5.2 °C 30.30 in /  1026 hPa Calm     97 % 0.00 in /  0 mm 0 W/m2
05:38 42.1 °F /  5.6 °C 41.3 °F /  5.2 °C 30.30 in /  1026 hPa Calm   2.0 mph /  3.2 km/h 97 % 0.00 in /  0 mm 0 W/m2
05:52 42.1 °F /  5.6 °C 41.3 °F /  5.2 °C 30.30 in /  1026 hPa Calm   2.0 mph /  3.2 km/h 97 % 0.00 in /  0 mm 0 W/m2
06:02 42.1 °F /  5.6 °C 41.3 °F /  5.2 °C 30.31 in /  1026.3 hPa ENE 1.0 mph /  1.6 km/h 5.0 mph /  8 km/h 97 % 0.00 in /  0 mm 0 W/m2
06:18 42.1 °F /  5.6 °C 41.3 °F /  5.2 °C 30.31 in /  1026.3 hPa East 1.0 mph /  1.6 km/h 4.0 mph /  6.4 km/h 97 % 0.00 in /  0 mm 0 W/m2
06:26 42.1 °F /  5.6 °C 41.3 °F /  5.2 °C 30.30 in /  1026 hPa East 1.0 mph /  1.6 km/h 4.0 mph /  6.4 km/h 97 % 0.00 in /  0 mm 0 W/m2
06:34 42.1 °F /  5.6 °C 41.3 °F /  5.2 °C 30.30 in /  1026 hPa ESE 2.0 mph /  3.2 km/h 6.0 mph /  9.7 km/h 97 % 0.00 in /  0 mm 0 W/m2
06:42 42.1 °F /  5.6 °C 41.3 °F /  5.2 °C 30.31 in /  1026.3 hPa East 1.0 mph /  1.6 km/h 4.0 mph /  6.4 km/h 97 % 0.00 in /  0 mm 0 W/m2
06:47 42.1 °F /  5.6 °C 41.3 °F /  5.2 °C 30.30 in /  1026 hPa East 1.0 mph /  1.6 km/h 3.0 mph /  4.8 km/h 97 % 0.00 in /  0 mm 0 W/m2
07:00 42.1 °F /  5.6 °C 41.3 °F /  5.2 °C 30.31 in /  1026.3 hPa ESE 2.0 mph /  3.2 km/h 6.0 mph /  9.7 km/h 97 % 0.00 in /  0 mm 0 W/m2
07:11 42.1 °F /  5.6 °C 41.3 °F /  5.2 °C 30.31 in /  1026.3 hPa SE 2.0 mph /  3.2 km/h 5.0 mph /  8 km/h 97 % 0.00 in /  0 mm 0 W/m2
07:19 42.1 °F /  5.6 °C 41.3 °F /  5.2 °C 30.30 in /  1026 hPa ESE 2.0 mph /  3.2 km/h 4.0 mph /  6.4 km/h 97 % 0.00 in /  0 mm 0 W/m2
07:41 42.1 °F /  5.6 °C 41.3 °F /  5.2 °C 30.31 in /  1026.3 hPa ESE 1.0 mph /  1.6 km/h 3.0 mph /  4.8 km/h 97 % 0.00 in /  0 mm 0 W/m2
07:48 42.1 °F /  5.6 °C 41.3 °F /  5.2 °C 30.32 in /  1026.6 hPa SE 3.0 mph /  4.8 km/h 5.0 mph /  8 km/h 97 % 0.00 in /  0 mm 0 W/m2
07:53 42.1 °F /  5.6 °C 41.3 °F /  5.2 °C 30.32 in /  1026.6 hPa Calm     97 % 0.00 in /  0 mm 0 W/m2
08:06 42.1 °F /  5.6 °C 41.3 °F /  5.2 °C 30.32 in /  1026.6 hPa Calm     97 % 0.00 in /  0 mm 0 W/m2
08:31 42.1 °F /  5.6 °C 41.3 °F /  5.2 °C 30.32 in /  1026.6 hPa SSE 1.0 mph /  1.6 km/h 3.0 mph /  4.8 km/h 97 % 0.00 in /  0 mm 0 W/m2
08:38 42.1 °F /  5.6 °C 41.3 °F /  5.2 °C 30.32 in /  1026.6 hPa SE 3.0 mph /  4.8 km/h 4.0 mph /  6.4 km/h 97 % 0.00 in /  0 mm 0 W/m2
08:54 42.1 °F /  5.6 °C 41.3 °F /  5.2 °C 30.32 in /  1026.6 hPa ESE 3.0 mph /  4.8 km/h 5.0 mph /  8 km/h 97 % 0.00 in /  0 mm 9 W/m2
09:00 41.9 °F /  5.5 °C 41.1 °F /  5.1 °C 30.31 in /  1026.3 hPa SE 4.0 mph /  6.4 km/h 6.0 mph /  9.7 km/h 97 % 0.00 in /  0 mm 11 W/m2
09:07 41.9 °F /  5.5 °C 41.1 °F /  5.1 °C 30.32 in /  1026.6 hPa ESE 3.0 mph /  4.8 km/h 6.0 mph /  9.7 km/h 97 % 0.00 in /  0 mm 12 W/m2
09:12 41.9 °F /  5.5 °C 41.1 °F /  5.1 °C 30.32 in /  1026.6 hPa SE 4.0 mph /  6.4 km/h 6.0 mph /  9.7 km/h 97 % 0.00 in /  0 mm 12 W/m2
09:18 41.9 °F /  5.5 °C 41.1 °F /  5.1 °C 30.32 in /  1026.6 hPa SE 2.0 mph /  3.2 km/h 5.0 mph /  8 km/h 97 % 0.00 in /  0 mm 16 W/m2
09:26 42.1 °F /  5.6 °C 41.3 °F /  5.2 °C 30.32 in /  1026.6 hPa ESE 4.0 mph /  6.4 km/h 6.0 mph /  9.7 km/h 97 % 0.00 in /  0 mm 16 W/m2
09:34 42.1 °F /  5.6 °C 41.3 °F /  5.2 °C 30.32 in /  1026.6 hPa ESE 2.0 mph /  3.2 km/h 5.0 mph /  8 km/h 97 % 0.00 in /  0 mm 18 W/m2
09:44 42.1 °F /  5.6 °C 41.3 °F /  5.2 °C 30.32 in /  1026.6 hPa SE 2.0 mph /  3.2 km/h 5.0 mph /  8 km/h 97 % 0.00 in /  0 mm 19 W/m2
09:57 41.9 °F /  5.5 °C 41.1 °F /  5.1 °C 30.32 in /  1026.6 hPa SE 3.0 mph /  4.8 km/h 5.0 mph /  8 km/h 97 % 0.00 in /  0 mm 19 W/m2
10:05 41.9 °F /  5.5 °C 41.1 °F /  5.1 °C 30.33 in /  1027 hPa SE 3.0 mph /  4.8 km/h 6.0 mph /  9.7 km/h 97 % 0.00 in /  0 mm 12 W/m2
10:15 41.7 °F /  5.4 °C 40.9 °F /  4.9 °C 30.33 in /  1027 hPa SE 6.0 mph /  9.7 km/h 8.0 mph /  12.9 km/h 97 % 0.00 in /  0 mm 21 W/m2
10:22 41.7 °F /  5.4 °C 40.9 °F /  4.9 °C 30.32 in /  1026.6 hPa SE 4.0 mph /  6.4 km/h 6.0 mph /  9.7 km/h 97 % 0.00 in /  0 mm 30 W/m2
10:32 41.7 °F /  5.4 °C 40.9 °F /  4.9 °C 30.32 in /  1026.6 hPa SE 3.0 mph /  4.8 km/h 5.0 mph /  8 km/h 97 % 0.00 in /  0 mm 51 W/m2
10:41 41.9 °F /  5.5 °C 41.1 °F /  5.1 °C 30.32 in /  1026.6 hPa SE 3.0 mph /  4.8 km/h 5.0 mph /  8 km/h 97 % 0.00 in /  0 mm 67 W/m2
10:49 42.1 °F /  5.6 °C 41.3 °F /  5.2 °C 30.31 in /  1026.3 hPa SSE 3.0 mph /  4.8 km/h 6.0 mph /  9.7 km/h 97 % 0.00 in /  0 mm 77 W/m2
11:07 42.1 °F /  5.6 °C 41.3 °F /  5.2 °C 30.31 in /  1026.3 hPa SSE 1.0 mph /  1.6 km/h 4.0 mph /  6.4 km/h 97 % 0.00 in /  0 mm 69 W/m2
11:13 42.1 °F /  5.6 °C 41.3 °F /  5.2 °C 30.31 in /  1026.3 hPa Calm   2.0 mph /  3.2 km/h 97 % 0.00 in /  0 mm 91 W/m2
11:22 42.3 °F /  5.7 °C 41.5 °F /  5.3 °C 30.31 in /  1026.3 hPa SSE 1.0 mph /  1.6 km/h 4.0 mph /  6.4 km/h 97 % 0.00 in /  0 mm 77 W/m2
11:27 42.3 °F /  5.7 °C 41.5 °F /  5.3 °C 30.31 in /  1026.3 hPa SE 6.0 mph /  9.7 km/h 8.0 mph /  12.9 km/h 97 % 0.00 in /  0 mm 42 W/m2
11:33 42.3 °F /  5.7 °C 41.5 °F /  5.3 °C 30.30 in /  1026 hPa SSE 5.0 mph /  8 km/h 8.0 mph /  12.9 km/h 97 % 0.00 in /  0 mm 54 W/m2
11:42 42.3 °F /  5.7 °C 41.5 °F /  5.3 °C 30.30 in /  1026 hPa SE 6.0 mph /  9.7 km/h 8.0 mph /  12.9 km/h 97 % 0.00 in /  0 mm 67 W/m2
11:47 42.3 °F /  5.7 °C 41.5 °F /  5.3 °C 30.30 in /  1026 hPa SE 6.0 mph /  9.7 km/h 9.0 mph /  14.5 km/h 97 % 0.00 in /  0 mm 83 W/m2
11:53 42.3 °F /  5.7 °C 41.5 °F /  5.3 °C 30.30 in /  1026 hPa ESE 2.0 mph /  3.2 km/h 5.0 mph /  8 km/h 97 % 0.00 in /  0 mm 58 W/m2
11:59 42.4 °F /  5.8 °C 41.6 °F /  5.3 °C 30.29 in /  1025.6 hPa SE 4.0 mph /  6.4 km/h 7.0 mph /  11.3 km/h 97 % 0.00 in /  0 mm 49 W/m2
12:05 42.4 °F /  5.8 °C 41.6 °F /  5.3 °C 30.29 in /  1025.6 hPa ESE 5.0 mph /  8 km/h 7.0 mph /  11.3 km/h 97 % 0.00 in /  0 mm 79 W/m2
12:15 42.4 °F /  5.8 °C 41.6 °F /  5.3 °C 30.29 in /  1025.6 hPa SE 3.0 mph /  4.8 km/h 5.0 mph /  8 km/h 97 % 0.00 in /  0 mm 42 W/m2
12:25 42.4 °F /  5.8 °C 41.6 °F /  5.3 °C 30.29 in /  1025.6 hPa SSE 6.0 mph /  9.7 km/h 10.0 mph /  16.1 km/h 97 % 0.00 in /  0 mm 54 W/m2
13:04 42.6 °F /  5.9 °C 41.6 °F /  5.3 °C 30.27 in /  1024.9 hPa SE 2.0 mph /  3.2 km/h 5.0 mph /  8 km/h 96 % 0.00 in /  0 mm 21 W/m2
13:12 42.6 °F /  5.9 °C 41.6 °F /  5.3 °C 30.27 in /  1024.9 hPa ESE 5.0 mph /  8 km/h 7.0 mph /  11.3 km/h 96 % 0.00 in /  0 mm 18 W/m2
13:17 42.6 °F /  5.9 °C 41.6 °F /  5.3 °C 30.27 in /  1024.9 hPa ESE 5.0 mph /  8 km/h 8.0 mph /  12.9 km/h 96 % 0.00 in /  0 mm 16 W/m2
13:25 42.4 °F /  5.8 °C 41.1 °F /  5.1 °C 30.26 in /  1024.6 hPa ESE 4.0 mph /  6.4 km/h 7.0 mph /  11.3 km/h 95 % 0.00 in /  0 mm 26 W/m2
13:35 42.4 °F /  5.8 °C 41.1 °F /  5.1 °C 30.26 in /  1024.6 hPa ESE 5.0 mph /  8 km/h 8.0 mph /  12.9 km/h 95 % 0.00 in /  0 mm 12 W/m2
13:49 42.3 °F /  5.7 °C 40.9 °F /  4.9 °C 30.26 in /  1024.6 hPa ESE 5.0 mph /  8 km/h 8.0 mph /  12.9 km/h 95 % 0.00 in /  0 mm 21 W/m2
13:55 42.3 °F /  5.7 °C 40.9 °F /  4.9 °C 30.26 in /  1024.6 hPa SE 4.0 mph /  6.4 km/h 7.0 mph /  11.3 km/h 95 % 0.00 in /  0 mm 14 W/m2
14:06 42.3 °F /  5.7 °C 40.9 °F /  4.9 °C 30.26 in /  1024.6 hPa ESE 6.0 mph /  9.7 km/h 9.0 mph /  14.5 km/h 95 % 0.00 in /  0 mm 9 W/m2
14:23 42.1 °F /  5.6 °C 41.0 °F /  5 °C 30.25 in /  1024.3 hPa ESE 4.0 mph /  6.4 km/h 7.0 mph /  11.3 km/h 96 % 0.00 in /  0 mm 5 W/m2
14:38 42.1 °F /  5.6 °C 41.0 °F /  5 °C 30.26 in /  1024.6 hPa SE 5.0 mph /  8 km/h 7.0 mph /  11.3 km/h 96 % 0.00 in /  0 mm 12 W/m2
14:49 42.1 °F /  5.6 °C 41.0 °F /  5 °C 30.26 in /  1024.6 hPa SE 5.0 mph /  8 km/h 7.0 mph /  11.3 km/h 96 % 0.00 in /  0 mm 16 W/m2
15:00 42.3 °F /  5.7 °C 41.2 °F /  5.1 °C 30.26 in /  1024.6 hPa ESE 3.0 mph /  4.8 km/h 7.0 mph /  11.3 km/h 96 % 0.00 in /  0 mm 33 W/m2
15:05 42.3 °F /  5.7 °C 41.2 °F /  5.1 °C 30.26 in /  1024.6 hPa ESE 3.0 mph /  4.8 km/h 8.0 mph /  12.9 km/h 96 % 0.00 in /  0 mm 37 W/m2
15:12 42.4 °F /  5.8 °C 41.4 °F /  5.2 °C 30.25 in /  1024.3 hPa ESE 5.0 mph /  8 km/h 7.0 mph /  11.3 km/h 96 % 0.00 in /  0 mm 28 W/m2
15:19 42.4 °F /  5.8 °C 41.4 °F /  5.2 °C 30.25 in /  1024.3 hPa SE 3.0 mph /  4.8 km/h 5.0 mph /  8 km/h 96 % 0.00 in /  0 mm 19 W/m2
15:26 42.4 °F /  5.8 °C 41.4 °F /  5.2 °C 30.25 in /  1024.3 hPa ESE 3.0 mph /  4.8 km/h 5.0 mph /  8 km/h 96 % 0.00 in /  0 mm 11 W/m2
15:36 42.3 °F /  5.7 °C 41.2 °F /  5.1 °C 30.24 in /  1023.9 hPa ESE 2.0 mph /  3.2 km/h 5.0 mph /  8 km/h 96 % 0.00 in /  0 mm 14 W/m2
15:41 42.3 °F /  5.7 °C 41.2 °F /  5.1 °C 30.24 in /  1023.9 hPa ESE 4.0 mph /  6.4 km/h 6.0 mph /  9.7 km/h 96 % 0.00 in /  0 mm 14 W/m2
15:51 42.3 °F /  5.7 °C 41.2 °F /  5.1 °C 30.24 in /  1023.9 hPa ESE 3.0 mph /  4.8 km/h 7.0 mph /  11.3 km/h 96 % 0.00 in /  0 mm 11 W/m2
15:57 42.1 °F /  5.6 °C 41.0 °F /  5 °C 30.24 in /  1023.9 hPa ESE 4.0 mph /  6.4 km/h 6.0 mph /  9.7 km/h 96 % 0.00 in /  0 mm 5 W/m2
16:02 42.1 °F /  5.6 °C 41.0 °F /  5 °C 30.24 in /  1023.9 hPa ESE 4.0 mph /  6.4 km/h 6.0 mph /  9.7 km/h 96 % 0.00 in /  0 mm 0 W/m2
16:18 42.1 °F /  5.6 °C 41.0 °F /  5 °C 30.24 in /  1023.9 hPa ESE 5.0 mph /  8 km/h 7.0 mph /  11.3 km/h 96 % 0.00 in /  0 mm 0 W/m2
16:28 42.1 °F /  5.6 °C 41.0 °F /  5 °C 30.24 in /  1023.9 hPa ESE 5.0 mph /  8 km/h 8.0 mph /  12.9 km/h 96 % 0.00 in /  0 mm 0 W/m2
16:40 42.1 °F /  5.6 °C 41.0 °F /  5 °C 30.24 in /  1023.9 hPa ESE 3.0 mph /  4.8 km/h 6.0 mph /  9.7 km/h 96 % 0.00 in /  0 mm 0 W/m2
16:56 42.1 °F /  5.6 °C 41.0 °F /  5 °C 30.24 in /  1023.9 hPa SE 5.0 mph /  8 km/h 7.0 mph /  11.3 km/h 96 % 0.00 in /  0 mm 0 W/m2
17:04 42.1 °F /  5.6 °C 41.0 °F /  5 °C 30.24 in /  1023.9 hPa ESE 5.0 mph /  8 km/h 7.0 mph /  11.3 km/h 96 % 0.00 in /  0 mm 0 W/m2
17:18 42.1 °F /  5.6 °C 41.0 °F /  5 °C 30.24 in /  1023.9 hPa East 4.0 mph /  6.4 km/h 6.0 mph /  9.7 km/h 96 % 0.00 in /  0 mm 0 W/m2
17:43 42.1 °F /  5.6 °C 41.0 °F /  5 °C 30.24 in /  1023.9 hPa ESE 4.0 mph /  6.4 km/h 7.0 mph /  11.3 km/h 96 % 0.00 in /  0 mm 0 W/m2
17:56 42.1 °F /  5.6 °C 41.0 °F /  5 °C 30.24 in /  1023.9 hPa ESE 5.0 mph /  8 km/h 6.0 mph /  9.7 km/h 96 % 0.00 in /  0 mm 0 W/m2
18:13 42.1 °F /  5.6 °C 41.0 °F /  5 °C 30.23 in /  1023.6 hPa ESE 7.0 mph /  11.3 km/h 10.0 mph /  16.1 km/h 96 % 0.00 in /  0 mm 0 W/m2
18:29 42.1 °F /  5.6 °C 41.0 °F /  5 °C 30.23 in /  1023.6 hPa ESE 7.0 mph /  11.3 km/h 11.0 mph /  17.7 km/h 96 % 0.00 in /  0 mm 0 W/m2
18:44 41.9 °F /  5.5 °C 40.8 °F /  4.9 °C 30.23 in /  1023.6 hPa SE 5.0 mph /  8 km/h 9.0 mph /  14.5 km/h 96 % 0.00 in /  0 mm 0 W/m2
18:53 41.7 °F /  5.4 °C 40.7 °F /  4.8 °C 30.23 in /  1023.6 hPa SE 4.0 mph /  6.4 km/h 7.0 mph /  11.3 km/h 96 % 0.00 in /  0 mm 0 W/m2
19:01 41.7 °F /  5.4 °C 40.7 °F /  4.8 °C 30.23 in /  1023.6 hPa SE 6.0 mph /  9.7 km/h 10.0 mph /  16.1 km/h 96 % 0.00 in /  0 mm 0 W/m2
19:13 41.7 °F /  5.4 °C 40.7 °F /  4.8 °C 30.23 in /  1023.6 hPa SE 6.0 mph /  9.7 km/h 7.0 mph /  11.3 km/h 96 % 0.00 in /  0 mm 0 W/m2
19:29 41.7 °F /  5.4 °C 40.7 °F /  4.8 °C 30.23 in /  1023.6 hPa SE 7.0 mph /  11.3 km/h 12.0 mph /  19.3 km/h 96 % 0.00 in /  0 mm 0 W/m2
19:36 41.7 °F /  5.4 °C 40.7 °F /  4.8 °C 30.22 in /  1023.2 hPa SE 4.0 mph /  6.4 km/h 7.0 mph /  11.3 km/h 96 % 0.00 in /  0 mm 0 W/m2
19:41 41.7 °F /  5.4 °C 40.7 °F /  4.8 °C 30.22 in /  1023.2 hPa ESE 7.0 mph /  11.3 km/h 10.0 mph /  16.1 km/h 96 % 0.00 in /  0 mm 0 W/m2
19:58 41.7 °F /  5.4 °C 40.7 °F /  4.8 °C 30.22 in /  1023.2 hPa SE 7.0 mph /  11.3 km/h 10.0 mph /  16.1 km/h 96 % 0.00 in /  0 mm 0 W/m2
20:03 41.7 °F /  5.4 °C 40.7 °F /  4.8 °C 30.22 in /  1023.2 hPa SE 8.0 mph /  12.9 km/h 13.0 mph /  20.9 km/h 96 % 0.00 in /  0 mm 0 W/m2
20:12 41.9 °F /  5.5 °C 40.8 °F /  4.9 °C 30.22 in /  1023.2 hPa SE 7.0 mph /  11.3 km/h 11.0 mph /  17.7 km/h 96 % 0.00 in /  0 mm 0 W/m2
20:17 41.9 °F /  5.5 °C 40.8 °F /  4.9 °C 30.22 in /  1023.2 hPa SE 6.0 mph /  9.7 km/h 10.0 mph /  16.1 km/h 96 % 0.00 in /  0 mm 0 W/m2
20:40 42.1 °F /  5.6 °C 41.0 °F /  5 °C 30.21 in /  1022.9 hPa ESE 8.0 mph /  12.9 km/h 10.0 mph /  16.1 km/h 96 % 0.00 in /  0 mm 0 W/m2
20:46 42.1 °F /  5.6 °C 41.0 °F /  5 °C 30.21 in /  1022.9 hPa SE 6.0 mph /  9.7 km/h 10.0 mph /  16.1 km/h 96 % 0.00 in /  0 mm 0 W/m2
21:03 41.9 °F /  5.5 °C 40.6 °F /  4.8 °C 30.21 in /  1022.9 hPa SE 7.0 mph /  11.3 km/h 13.0 mph /  20.9 km/h 95 % 0.00 in /  0 mm 0 W/m2
21:08 42.1 °F /  5.6 °C 40.8 °F /  4.9 °C 30.21 in /  1022.9 hPa SE 7.0 mph /  11.3 km/h 12.0 mph /  19.3 km/h 95 % 0.00 in /  0 mm 0 W/m2
21:18 42.1 °F /  5.6 °C 40.8 °F /  4.9 °C 30.21 in /  1022.9 hPa SE 6.0 mph /  9.7 km/h 11.0 mph /  17.7 km/h 95 % 0.00 in /  0 mm 0 W/m2
21:23 41.9 °F /  5.5 °C 40.6 °F /  4.8 °C 30.21 in /  1022.9 hPa SE 10.0 mph /  16.1 km/h 18.0 mph /  29 km/h 95 % 0.00 in /  0 mm 0 W/m2
21:33 41.9 °F /  5.5 °C 40.6 °F /  4.8 °C 30.21 in /  1022.9 hPa SE 7.0 mph /  11.3 km/h 11.0 mph /  17.7 km/h 95 % 0.00 in /  0 mm 0 W/m2
21:43 41.9 °F /  5.5 °C 40.6 °F /  4.8 °C 30.20 in /  1022.6 hPa SE 6.0 mph /  9.7 km/h 9.0 mph /  14.5 km/h 95 % 0.00 in /  0 mm 0 W/m2
21:55 42.1 °F /  5.6 °C 40.8 °F /  4.9 °C 30.19 in /  1022.2 hPa ESE 6.0 mph /  9.7 km/h 10.0 mph /  16.1 km/h 95 % 0.00 in /  0 mm 0 W/m2
22:02 42.1 °F /  5.6 °C 40.8 °F /  4.9 °C 30.19 in /  1022.2 hPa SE 7.0 mph /  11.3 km/h 11.0 mph /  17.7 km/h 95 % 0.00 in /  0 mm 0 W/m2
22:11 42.1 °F /  5.6 °C 40.8 °F /  4.9 °C 30.19 in /  1022.2 hPa SE 7.0 mph /  11.3 km/h 10.0 mph /  16.1 km/h 95 % 0.00 in /  0 mm 0 W/m2
22:21 42.1 °F /  5.6 °C 40.8 °F /  4.9 °C 30.18 in /  1021.9 hPa SE 9.0 mph /  14.5 km/h 13.0 mph /  20.9 km/h 95 % 0.00 in /  0 mm 0 W/m2
22:36 42.1 °F /  5.6 °C 40.8 °F /  4.9 °C 30.18 in /  1021.9 hPa SE 5.0 mph /  8 km/h 9.0 mph /  14.5 km/h 95 % 0.00 in /  0 mm 0 W/m2
22:52 42.1 °F /  5.6 °C 40.8 °F /  4.9 °C 30.18 in /  1021.9 hPa SE 8.0 mph /  12.9 km/h 12.0 mph /  19.3 km/h 95 % 0.00 in /  0 mm 0 W/m2
23:05 42.1 °F /  5.6 °C 40.5 °F /  4.7 °C 30.18 in /  1021.9 hPa SE 8.0 mph /  12.9 km/h 10.0 mph /  16.1 km/h 94 % 0.00 in /  0 mm 0 W/m2
23:18 42.3 °F /  5.7 °C 40.7 °F /  4.8 °C 30.17 in /  1021.6 hPa SE 7.0 mph /  11.3 km/h 10.0 mph /  16.1 km/h 94 % 0.00 in /  0 mm 0 W/m2
23:33 42.3 °F /  5.7 °C 40.7 °F /  4.8 °C 30.17 in /  1021.6 hPa SE 7.0 mph /  11.3 km/h 12.0 mph /  19.3 km/h 94 % 0.00 in /  0 mm 0 W/m2
23:39 42.3 °F /  5.7 °C 40.7 °F /  4.8 °C 30.17 in /  1021.6 hPa SE 7.0 mph /  11.3 km/h 9.0 mph /  14.5 km/h 94 % 0.00 in /  0 mm 0 W/m2
23:48 42.3 °F /  5.7 °C 40.7 °F /  4.8 °C 30.17 in /  1021.6 hPa SE 6.0 mph /  9.7 km/h 9.0 mph /  14.5 km/h 94 % 0.00 in /  0 mm 0 W/m2
23:55 42.3 °F /  5.7 °C 40.7 °F /  4.8 °C 30.17 in /  1021.6 hPa SE 6.0 mph /  9.7 km/h 9.0 mph /  14.5 km/h 94 % 0.00 in /  0 mm 0 W/m2
Delerius-Weather
Compliments of Weather Underground - 1.5 mb

Data updates at regular intervals.